createdAt,value
2023-03-14T00:03:03.931Z,8.90
2023-03-14T00:08:05.833Z,8.84
2023-03-14T00:13:07.547Z,8.68
2023-03-14T00:18:09.126Z,8.65
2023-03-14T00:23:10.916Z,8.82
2023-03-14T00:28:12.691Z,8.88
2023-03-14T00:33:15.374Z,8.61
2023-03-14T00:38:17.207Z,8.14
2023-03-14T00:43:22.521Z,7.79
2023-03-14T00:48:24.392Z,7.60
2023-03-14T00:53:26.301Z,7.68
2023-03-14T00:58:28.162Z,8.40
2023-03-14T01:03:29.971Z,8.56
2023-03-14T01:08:31.898Z,8.81
2023-03-14T01:13:33.754Z,9.01
2023-03-14T01:18:38.978Z,9.11
2023-03-14T01:23:41.021Z,9.24
2023-03-14T01:28:43.011Z,9.38
2023-03-14T01:33:47.037Z,9.37
2023-03-14T01:38:48.966Z,9.30
2023-03-14T01:43:52.839Z,9.27
2023-03-14T01:49:11.962Z,9.24
2023-03-14T01:54:23.169Z,9.40
2023-03-14T01:59:26.622Z,9.33
2023-03-14T02:04:34.004Z,9.63
2023-03-14T02:09:37.597Z,9.93
2023-03-14T02:14:40.045Z,10.18
2023-03-14T02:20:29.156Z,10.18
2023-03-14T02:25:49.414Z,10.06
2023-03-14T02:30:51.386Z,10.08
2023-03-14T02:36:02.717Z,10.02
2023-03-14T02:41:05.364Z,9.91
2023-03-14T02:46:19.322Z,9.80
2023-03-14T02:51:23.443Z,9.76
2023-03-14T02:56:25.535Z,9.81
2023-03-14T03:01:27.446Z,9.71
2023-03-14T03:06:29.309Z,9.67
2023-03-14T03:11:32.670Z,9.57
2023-03-14T03:16:35.042Z,9.48
2023-03-14T03:21:36.872Z,9.39
2023-03-14T03:26:39.841Z,9.38
2023-03-14T03:31:46.480Z,9.34
2023-03-14T03:36:48.877Z,9.26
2023-03-14T03:41:50.827Z,9.24
2023-03-14T03:46:53.973Z,9.22
2023-03-14T03:51:55.773Z,9.19
2023-03-14T03:56:57.769Z,9.10
2023-03-14T04:01:59.748Z,9.02
2023-03-14T04:07:01.835Z,8.99
2023-03-14T04:12:03.922Z,9.01
2023-03-14T04:17:30.070Z,8.94
2023-03-14T04:22:31.973Z,8.96
2023-03-14T04:27:35.768Z,9.07
2023-03-14T04:32:41.389Z,9.05
2023-03-14T04:37:44.361Z,9.12
2023-03-14T04:42:49.966Z,8.99
2023-03-14T04:47:52.140Z,8.99
2023-03-14T04:52:55.230Z,9.08
2023-03-14T04:57:57.323Z,9.08
2023-03-14T05:03:00.456Z,9.14
2023-03-14T05:08:21.191Z,9.17
2023-03-14T05:13:39.211Z,9.14
2023-03-14T05:19:02.669Z,9.07
2023-03-14T05:24:23.308Z,9.09
2023-03-14T05:29:27.718Z,9.19
2023-03-14T05:35:08.806Z,9.23
2023-03-14T05:40:33.669Z,9.25
2023-03-14T05:45:55.862Z,9.26
2023-03-14T05:51:23.038Z,9.24
2023-03-14T05:56:41.574Z,9.29
2023-03-14T06:01:46.203Z,9.32
2023-03-14T06:06:55.340Z,9.33
2023-03-14T06:11:57.949Z,9.35
2023-03-14T06:17:00.272Z,9.33
2023-03-14T06:22:05.132Z,9.33
2023-03-14T06:27:09.536Z,9.30
2023-03-14T06:32:11.327Z,9.38
2023-03-14T06:37:13.555Z,9.43
2023-03-14T06:42:16.034Z,9.43
2023-03-14T06:47:19.004Z,9.47
2023-03-14T06:52:21.473Z,9.58
2023-03-14T06:57:23.489Z,9.64
2023-03-14T07:02:39.740Z,9.73
2023-03-14T07:07:48.985Z,9.78
2023-03-14T07:12:53.726Z,9.77
2023-03-14T07:17:57.142Z,9.72
2023-03-14T07:23:01.094Z,9.67
2023-03-14T07:28:16.295Z,9.63
2023-03-14T07:33:20.644Z,9.78
2023-03-14T07:38:23.107Z,9.85
2023-03-14T07:44:03.567Z,9.94
2023-03-14T07:49:05.318Z,10.05
2023-03-14T07:54:07.044Z,10.13
2023-03-14T07:59:08.786Z,10.01
2023-03-14T08:04:10.879Z,10.11
2023-03-14T08:09:12.476Z,10.07
2023-03-14T08:14:14.086Z,10.17
2023-03-14T08:19:15.692Z,10.61
2023-03-14T08:24:17.725Z,10.68
2023-03-14T08:29:19.328Z,10.85
2023-03-14T08:34:21.174Z,10.98
2023-03-14T08:39:22.817Z,10.95
2023-03-14T08:44:24.556Z,11.04
2023-03-14T08:49:26.285Z,10.78
2023-03-14T08:54:28.016Z,10.62
2023-03-14T08:59:29.823Z,10.50
2023-03-14T09:04:32.424Z,10.46
2023-03-14T09:09:34.140Z,10.41
2023-03-14T09:14:35.866Z,10.40
2023-03-14T09:19:37.650Z,10.32
2023-03-14T09:24:40.039Z,10.47
2023-03-14T09:29:41.679Z,10.59
2023-03-14T09:34:43.307Z,10.63
2023-03-14T09:39:44.895Z,10.43
2023-03-14T09:45:06.687Z,10.45
2023-03-14T09:50:15.610Z,10.40
2023-03-14T09:55:20.629Z,10.53
2023-03-14T10:00:26.805Z,10.64
2023-03-14T10:05:30.576Z,10.73
2023-03-14T10:10:33.338Z,10.93
2023-03-14T10:15:35.776Z,11.04
2023-03-14T10:20:40.392Z,10.93
2023-03-14T10:25:45.076Z,10.91
2023-03-14T10:30:47.524Z,11.46
2023-03-14T10:36:00.666Z,11.86
2023-03-14T10:41:04.164Z,11.59
2023-03-14T10:46:15.759Z,11.12
2023-03-14T10:51:37.685Z,10.95
2023-03-14T10:56:39.613Z,10.99
2023-03-14T11:01:53.808Z,11.04
2023-03-14T11:07:17.294Z,11.57
2023-03-14T11:12:37.061Z,11.82
2023-03-14T11:18:20.829Z,11.78
2023-03-14T11:23:26.648Z,11.69
2023-03-14T11:28:37.629Z,11.36
2023-03-14T11:33:47.850Z,11.06
2023-03-14T11:38:51.573Z,11.17
2023-03-14T11:43:59.326Z,10.90
2023-03-14T11:49:01.368Z,10.99
2023-03-14T11:54:17.204Z,11.40
2023-03-14T11:59:43.400Z,11.54
2023-03-14T12:04:55.660Z,11.90
2023-03-14T12:09:57.729Z,11.83
2023-03-14T12:15:01.737Z,12.57
2023-03-14T12:20:15.617Z,11.49
2023-03-14T12:25:21.235Z,12.98
2023-03-14T12:30:29.420Z,13.85
2023-03-14T12:35:39.573Z,13.29
2023-03-14T12:41:08.000Z,12.06
2023-03-14T12:46:16.484Z,11.67
2023-03-14T12:51:46.406Z,11.29
2023-03-14T12:57:05.534Z,11.17
2023-03-14T13:02:07.075Z,11.36
2023-03-14T13:07:34.478Z,11.21
2023-03-14T13:13:02.016Z,11.22
2023-03-14T13:18:24.939Z,11.48
2023-03-14T13:23:30.053Z,12.34
2023-03-14T13:28:32.873Z,13.85
2023-03-14T13:33:35.836Z,13.05
2023-03-14T13:38:37.535Z,14.73
2023-03-14T13:43:44.463Z,15.64
2023-03-14T13:48:50.741Z,14.46
2023-03-14T13:53:54.583Z,12.81
2023-03-14T13:58:56.774Z,12.63
2023-03-14T14:04:03.021Z,12.20
2023-03-14T14:09:28.140Z,12.37
2023-03-14T14:14:41.553Z,12.63
2023-03-14T14:19:44.979Z,13.22
2023-03-14T14:24:47.341Z,14.21
2023-03-14T14:30:02.486Z,13.91
2023-03-14T14:35:04.935Z,13.47
2023-03-14T14:40:17.463Z,12.57
2023-03-14T14:45:22.095Z,11.94
2023-03-14T14:50:54.073Z,11.79
2023-03-14T14:55:58.419Z,11.65
2023-03-14T15:01:15.615Z,11.45
2023-03-14T15:06:18.029Z,11.09
2023-03-14T15:11:25.536Z,10.16
2023-03-14T15:16:32.259Z,9.72
2023-03-14T15:21:34.743Z,9.38
2023-03-14T15:26:36.385Z,9.17
2023-03-14T15:31:38.245Z,9.06
2023-03-14T15:36:39.905Z,8.90
2023-03-14T15:41:41.596Z,8.74
2023-03-14T15:46:43.217Z,8.60
2023-03-14T15:51:44.827Z,8.45
2023-03-14T15:56:46.680Z,8.34
2023-03-14T16:01:49.072Z,8.24
2023-03-14T16:06:50.678Z,8.20
2023-03-14T16:11:52.328Z,8.12
2023-03-14T16:16:55.802Z,6.39
2023-03-14T16:21:57.563Z,5.47
2023-03-14T16:26:59.267Z,5.38
2023-03-14T16:32:00.984Z,4.90
2023-03-14T16:37:02.694Z,4.47
2023-03-14T16:42:04.335Z,4.28
2023-03-14T16:47:10.545Z,4.27
2023-03-14T16:52:12.768Z,4.04
2023-03-14T16:57:14.390Z,3.64
2023-03-14T17:02:16.066Z,3.48
2023-03-14T17:07:17.697Z,3.20
2023-03-14T17:12:19.298Z,3.13
2023-03-14T17:17:20.967Z,3.09
2023-03-14T17:22:25.148Z,2.66
2023-03-14T17:27:29.439Z,2.25
2023-03-14T17:32:31.208Z,2.23
2023-03-14T17:37:32.910Z,1.91
2023-03-14T17:42:34.517Z,1.86
2023-03-14T17:47:36.177Z,1.80
2023-03-14T17:52:38.181Z,1.87
2023-03-14T17:57:40.287Z,1.85
2023-03-14T18:02:42.111Z,1.83
2023-03-14T18:07:43.984Z,1.89
2023-03-14T18:12:45.677Z,1.84
2023-03-14T18:17:47.330Z,1.91
2023-03-14T18:22:48.973Z,1.93
2023-03-14T18:27:50.689Z,1.91
2023-03-14T18:32:52.405Z,1.90
2023-03-14T18:37:54.140Z,1.86
2023-03-14T18:42:56.530Z,1.89
2023-03-14T18:47:58.285Z,1.86
2023-03-14T18:52:59.949Z,1.87
2023-03-14T18:58:01.960Z,1.87
2023-03-14T19:03:04.254Z,1.88
2023-03-14T19:08:05.898Z,1.76
2023-03-14T19:13:07.535Z,1.58
2023-03-14T19:18:11.009Z,1.54
2023-03-14T19:23:16.714Z,1.51
2023-03-14T19:28:18.417Z,1.48
2023-03-14T19:33:20.781Z,1.47
2023-03-14T19:38:22.716Z,1.58
2023-03-14T19:43:25.343Z,1.60
2023-03-14T19:48:30.513Z,1.73
2023-03-14T19:53:32.700Z,1.76
2023-03-14T19:58:35.139Z,1.80
2023-03-14T20:03:37.392Z,1.86
2023-03-14T20:08:40.119Z,1.87
2023-03-14T20:13:41.898Z,1.89
2023-03-14T20:18:43.715Z,1.94
2023-03-14T20:23:45.445Z,1.84
2023-03-14T20:28:48.185Z,1.95
2023-03-14T20:33:51.504Z,1.98
2023-03-14T20:38:53.687Z,1.94
2023-03-14T20:43:55.331Z,2.11
2023-03-14T20:48:56.969Z,2.22
2023-03-14T20:53:58.996Z,2.26
2023-03-14T20:59:00.609Z,2.21
2023-03-14T21:04:02.460Z,2.20
2023-03-14T21:09:05.442Z,2.19
2023-03-14T21:14:07.309Z,2.21
2023-03-14T21:19:09.026Z,2.26
2023-03-14T21:24:10.726Z,2.15
2023-03-14T21:29:12.372Z,2.10
2023-03-14T21:34:14.233Z,2.13
2023-03-14T21:39:15.937Z,2.14
2023-03-14T21:44:19.164Z,2.09
2023-03-14T21:49:20.778Z,2.11
2023-03-14T21:54:22.449Z,1.95
2023-03-14T21:59:24.084Z,1.60
2023-03-14T22:04:34.519Z,1.34
2023-03-14T22:09:39.636Z,1.11
2023-03-14T22:14:41.241Z,0.91
2023-03-14T22:19:42.931Z,1.08
2023-03-14T22:24:44.770Z,1.23
2023-03-14T22:29:46.425Z,1.21
2023-03-14T22:34:48.060Z,1.18
2023-03-14T22:39:49.894Z,0.81
2023-03-14T22:44:52.735Z,0.49
2023-03-14T22:49:54.434Z,0.28
2023-03-14T22:54:56.149Z,0.51
2023-03-14T22:59:57.903Z,0.57
2023-03-14T23:04:59.582Z,0.49
2023-03-14T23:10:01.223Z,0.44
2023-03-14T23:15:06.066Z,0.38
2023-03-14T23:20:09.320Z,0.34
2023-03-14T23:25:11.611Z,0.54
2023-03-14T23:30:15.106Z,0.67
2023-03-14T23:35:16.876Z,0.86
2023-03-14T23:40:18.694Z,1.02
2023-03-14T23:45:20.479Z,0.96
2023-03-14T23:50:22.187Z,0.84
2023-03-14T23:55:23.976Z,0.69
